Latest Coastal Weather Observations for Ulladulla

IDN60701

Issued at 8:35 pm EDT Saturday 25 October 2014 (issued every 10 minutes, with the page automatically refreshed every 10 minutes)

About coastal observations | Map of coastal stations | Coastal observations for NSW | Marine services | Other Formats
Station Details ID: 069138 Name: ULLADULLA AWS Lat: -35.36 Lon: 150.48 Height: 35.7 m
Data from the previous 72 hours. | See also: Recent months at Ulladulla
Date/Time
EDT
Temp

°C
Wind Pressure Rain
since 9am
mm
Weather Cloud Vis
km
Sea
Height
m
Swell
Dir
 
Speed
knots
Gust
knots
hPa Trend Height
m
Period
s
Dir
25/08:30pm 17.1 SW 3 6 1016.5 - 31.6 - - - - - - -
25/08:00pm 17.2 E 2 3 1016.0 - 31.6 - - - - - - -
25/07:30pm 17.2 ENE 1 2 1015.5 - 31.6 - - - - - - -
25/07:00pm 17.2 CALM 0 0 1015.0 - 31.6 - - - - - - -
25/06:30pm 17.0 N 2 4 1015.0 - 31.6 - - - - - - -
25/06:00pm 16.8 SSW 10 23 1015.5 - 31.6 Rain - - - - - -
25/05:41pm 16.7 SSE 10 15 1015.2 - 29.0 - - - - - - -
25/05:30pm 17.0 WSW 9 14 1017.4 - 13.6 - - - - - - -
25/05:25pm 17.4 S 6 12 1017.0 - 5.8 - - - - - - -
25/05:00pm 17.8 SE 4 7 1015.0 - 0.8 - - - - - - -
25/04:30pm 18.2 SE 6 9 1014.9 - 0.0 - - - - - - -
25/04:00pm 18.2 SSE 6 9 1015.5 - 0.0 - - - - - - -
25/03:30pm 18.4 SSE 6 10 1015.3 - 0.0 - - - - - - -
25/03:00pm 19.1 S 7 9 1015.5 - 0.0 - - - - - - -
25/02:30pm 19.6 SSE 6 9 1015.7 - 0.0 - - - - - - -
25/02:00pm 19.7 S 7 9 1015.9 - 0.0 - - - - - - -
25/01:30pm 19.9 S 9 10 1016.0 - 0.0 - - - - - - -
25/01:00pm 19.7 S 12 14 1016.1 - 0.0 - - - - - - -
25/12:30pm 19.9 S 12 15 1016.2 - 0.0 - - - - - - -
25/12:00pm 20.0 S 12 14 1016.4 - 0.0 - - - - - - -
25/11:30am 20.1 S 13 17 1016.5 - 0.0 - - - - - - -
25/11:00am 19.8 S 18 22 1016.4 - 0.0 - - - - - - -
25/10:30am 20.1 S 17 22 1016.4 - 0.0 - - - - - - -
25/10:00am 20.2 S 18 22 1016.2 - 0.0 - - - - - - -
25/09:30am 20.3 S 12 16 1016.0 - 0.0 - - - - - - -
25/09:00am 23.1 SW 6 11 1015.5 - 0.0 - - - - - - -
25/08:30am 22.5 SW 7 12 1015.4 - 0.0 - - - - - - -
25/08:00am 21.7 SW 8 12 1015.2 - 0.0 - - - - - - -
25/07:30am 20.9 SW 9 13 1015.2 - 0.0 - - - - - - -
25/07:00am 20.5 SW 8 14 1014.6 - 0.0 - - - - - - -
25/06:30am 19.6 SW 8 13 1014.3 - 0.0 - - - - - - -
25/06:00am 17.7 SW 4 7 1014.1 - 0.0 - - - - - - -
25/05:30am 16.5 SW 4 5 1013.7 - 0.0 - - - - - - -
25/05:00am 17.1 W 2 3 1013.1 - 0.0 - - - - - - -
25/04:30am 17.1 W 3 5 1012.4 - 0.0 - - - - - - -
25/04:00am 17.6 NW 1 4 1012.2 - 0.0 - - - - - - -
25/03:30am 18.2 N 3 7 1011.8 - 0.0 - - - - - - -
25/03:00am 18.2 NNW 4 5 1011.4 - 0.0 - - - - - - -
25/02:30am 18.3 N 6 8 1011.0 - 0.0 - - - - - - -
25/02:00am 18.2 N 6 8 1011.0 - 0.0 - - - - - - -
25/01:30am 18.5 N 6 9 1011.4 - 0.0 - - - - - - -
25/01:00am 18.9 NNW 7 11 1011.5 - 0.0 - - - - - - -
25/12:30am 18.8 N 6 11 1011.7 - 0.0 - - - - - - -
25/12:00am 18.7 ENE 6 10 1011.5 - 0.0 - - - - - - -
 
Date/Time
EDT
Temp

°C
Wind Pressure Rain
since 9am
mm
Weather Cloud Vis
km
Sea
Height
m
Swell
Dir
 
Speed
knots
Gust
knots
hPa Trend Height
m
Period
s
Dir
24/11:30pm 18.8 NE 6 9 1011.6 - 0.0 - - - - - - -
24/11:00pm 19.1 N 3 13 1011.1 - 0.0 - - - - - - -
24/10:30pm 19.2 E 4 7 1011.1 - 0.0 - - - - - - -
24/10:00pm 19.6 N 6 10 1011.3 - 0.0 - - - - - - -
24/09:30pm 19.4 N 4 6 1011.9 - 0.0 - - - - - - -
24/09:00pm 19.5 N 8 13 1012.3 - 0.0 - - - - - - -
24/08:30pm 19.3 N 3 8 1011.8 - 0.0 - - - - - - -
24/08:00pm 19.2 N 5 8 1011.7 - 0.0 - - - - - - -
24/07:30pm 19.4 NNE 5 10 1011.4 - 0.0 - - - - - - -
24/07:00pm 19.4 N 4 8 1011.4 - 0.0 - - - - - - -
24/06:30pm 19.8 N 5 8 1011.3 - 0.0 - - - - - - -
24/06:00pm 20.2 NNE 5 11 1011.3 - 0.0 - - - - - - -
24/05:30pm 20.7 NNE 6 10 1011.3 - 0.0 - - - - - - -
24/05:00pm 20.4 NNE 10 16 1011.4 - 0.0 - - - - - - -
24/04:30pm 21.0 NNE 7 11 1011.6 - 0.0 - - - - - - -
24/04:00pm 21.7 NNE 5 11 1011.8 - 0.0 - - - - - - -
24/03:30pm 21.8 N 5 11 1012.3 - 0.0 - - - - - - -
24/03:00pm 20.3 NNE 13 20 1012.5 - 0.0 - - - - - - -
24/02:30pm 20.6 NNE 17 22 1013.0 - 0.0 - - - - - - -
24/02:00pm 20.9 NE 14 21 1013.6 - 0.0 - - - - - - -
24/01:30pm 21.4 NNE 8 13 1014.3 - 0.0 - - - - - - -
24/01:00pm 21.0 NE 17 25 1014.7 - 0.0 - - - - - - -
24/12:30pm 20.7 NNE 19 23 1015.4 - 0.0 - - - - - - -
24/12:00pm 21.1 NE 13 19 1016.3 - 0.0 - - - - - - -
24/11:30am 21.8 N 5 9 1017.1 - 0.0 - - - - - - -
24/11:00am 21.1 N 7 13 1017.6 - 0.0 - - - - - - -
24/10:30am 19.9 N 5 9 1018.2 - 0.0 - - - - - - -
24/10:00am 19.4 N 4 6 1018.5 - 0.0 - - - - - - -
24/09:30am 19.3 N 3 6 1018.7 - 0.0 - - - - - - -
24/09:00am 19.6 NNW 4 6 1019.0 - 1.0 - - - - - - -
24/08:30am 18.2 S 1 2 1019.2 - 1.0 - - - - - - -
24/08:00am 18.1 CALM 0 0 1019.2 - 1.0 - - - - - - -
24/07:30am 17.9 W 2 3 1019.3 - 1.0 - - - - - - -
24/07:00am 18.1 N 4 7 1018.7 - 1.0 - - - - - - -
24/06:30am 17.9 NNW 4 5 1018.4 - 1.0 - - - - - - -
24/06:00am 17.9 ENE 1 4 1018.3 - 1.0 - - - - - - -
24/05:30am 17.6 SSE 3 6 1018.5 - 1.0 - - - - - - -
24/05:00am 17.3 NNW 1 3 1017.3 - 1.0 - - - - - - -
24/04:30am 17.4 N 3 5 1017.5 - 1.0 - - - - - - -
24/04:00am 17.8 NNW 4 7 1018.8 - 1.0 - - - - - - -
24/03:30am 17.7 N 2 3 1019.0 - 0.8 - - - - - - -
24/03:00am 17.7 NNE 2 4 1018.8 - 0.8 Recent precip. - - - - - -
24/02:30am 18.0 NW 4 9 1019.7 - 0.6 - - - - - - -
24/02:00am 18.1 NNE 5 8 1018.5 - 0.6 - - - - - - -
24/01:30am 18.0 N 8 11 1018.3 - 0.6 - - - - - - -
24/01:00am 18.1 N 5 9 1018.6 - 0.6 - - - - - - -
24/12:30am 18.4 N 3 5 1019.0 - 0.6 - - - - - - -
24/12:00am 18.4 N 4 11 1019.3 - 0.6 Recent precip. - - - - - -
 
Date/Time
EDT
Temp

°C
Wind Pressure Rain
since 9am
mm
Weather Cloud Vis
km
Sea
Height
m
Swell
Dir
 
Speed
knots
Gust
knots
hPa Trend Height
m
Period
s
Dir
23/11:30pm 18.5 NNW 3 4 1020.5 - 0.6 - - - - - - -
23/11:00pm 18.6 WSW 4 7 1021.6 - 0.2 - - - - - - -
23/10:30pm 18.5 SSE 2 3 1020.8 - 0.0 - - - - - - -
23/10:00pm 18.7 S 2 3 1021.4 - 0.0 - - - - - - -
23/09:30pm 19.0 SW 2 2 1021.2 - 0.0 - - - - - - -
23/09:00pm 19.3 SW 3 4 1020.8 - 0.0 - - - - - - -
23/08:30pm 19.2 S 2 3 1020.2 - 0.0 - - - - - - -
23/08:00pm 19.2 CALM 0 2 1019.4 - 0.0 - - - - - - -
23/07:30pm 18.9 S 1 3 1019.2 - 0.0 - - - - - - -
23/07:00pm 19.2 SSW 3 4 1019.0 - 0.0 - - - - - - -
23/06:30pm 19.5 S 3 5 1018.7 - 0.0 - - - - - - -
23/06:00pm 19.8 S 3 4 1018.5 - 0.0 - - - - - - -
23/05:30pm 19.9 S 6 8 1018.1 - 0.0 - - - - - - -
23/05:00pm 20.6 S 5 7 1018.0 - 0.0 - - - - - - -
23/04:30pm 20.7 S 3 4 1017.8 - 0.0 - - - - - - -
23/04:00pm 21.0 S 3 4 1017.5 - 0.0 - - - - - - -
23/03:30pm 22.0 SSE 3 6 1017.1 - 0.0 - - - - - - -
23/03:00pm 21.2 SSE 3 5 1017.3 - 0.0 - - - - - - -
23/02:30pm 21.5 SE 5 8 1017.0 - 0.0 - - - - - - -
23/02:00pm 20.8 S 4 6 1017.5 - 0.0 - - - - - - -
23/01:30pm 20.8 S 4 6 1017.6 - 0.0 - - - - - - -
23/01:00pm 20.6 S 4 5 1017.6 - 0.0 - - - - - - -
23/12:30pm 19.9 SSE 3 5 1017.8 - 0.0 - - - - - - -
23/12:00pm 20.0 S 4 6 1017.8 - 0.0 - - - - - - -
23/11:30am 20.3 SSE 3 5 1018.0 - 0.0 - - - - - - -
23/11:00am 20.7 SSE 4 6 1018.1 - 0.0 - - - - - - -
23/10:30am 19.8 SSE 3 4 1018.1 - 0.0 - - - - - - -
23/10:00am 19.2 S 3 5 1018.2 - 0.0 - - - - - - -
23/09:30am 18.6 S 3 4 1017.9 - 0.0 - - - - - - -
23/09:00am 18.5 S 3 5 1017.9 - 0.0 - - - - - - -
23/08:30am 18.2 S 3 5 1017.8 - 0.0 - - - - - - -
23/08:00am 17.0 S 4 6 1017.9 - 0.0 - - - - - - -
23/07:30am 15.8 SSW 3 5 1017.6 - 0.0 - - - - - - -
23/07:00am 15.3 S 1 4 1017.4 - 0.0 - - - - - - -
23/06:30am 14.7 CALM 0 0 1017.0 - 0.0 - - - - - - -
23/06:00am 14.8 CALM 0 0 1016.8 - 0.0 - - - - - - -
23/05:30am 14.5 NNW 1 2 1016.5 - 0.0 - - - - - - -
23/05:00am 14.5 CALM 0 2 1016.2 - 0.0 - - - - - - -
23/04:30am 14.3 NNW 1 2 1016.2 - 0.0 - - - - - - -
23/04:00am 14.4 N 2 3 1016.1 - 0.0 - - - - - - -
23/03:30am 14.4 SW 1 2 1016.6 - 0.0 - - - - - - -
23/03:00am 14.4 CALM 0 0 1016.9 - 0.0 - - - - - - -
23/02:30am 14.3 SW 1 2 1017.2 - 0.0 - - - - - - -
23/02:00am 14.8 SW 2 4 1017.7 - 0.0 - - - - - - -
23/01:30am 14.7 WNW 2 3 1017.7 - 0.0 - - - - - - -
23/01:00am 14.7 CALM 0 0 1018.1 - 0.0 - - - - - - -
23/12:30am 14.8 CALM 0 0 1018.3 - 0.0 - - - - - - -
23/12:00am 14.7 CALM 0 0 1018.5 - 0.0 - - - - - - -
 
Date/Time
EDT
Temp

°C
Wind Pressure Rain
since 9am
mm
Weather Cloud Vis
km
Sea
Height
m
Swell
Dir
 
Speed
knots
Gust
knots
hPa Trend Height
m
Period
s
Dir
22/11:30pm 15.2 CALM 0 1 1018.7 - 0.0 - - - - - - -
22/11:00pm 16.2 N 4 5 1018.8 - 0.0 - - - - - - -
22/10:30pm 16.7 N 3 5 1019.0 - 0.0 - - - - - - -
22/10:00pm 17.0 N 5 7 1019.0 - 0.0 - - - - - - -
22/09:30pm 17.0 N 2 3 1019.1 - 0.0 - - - - - - -
22/09:00pm 17.2 N 2 7 1019.2 - 0.0 - - - - - - -

Other Formats:

Comma delimited format used in spreadsheet applications
http://www.bom.gov.au/fwo/IDN60701/IDN60701.94938.axf

JavaScript Object Notation format (JSON) in row-major order
http://www.bom.gov.au/fwo/IDN60701/IDN60701.94938.json